Time;durP1;ratioP1;P1;durP2;ratioP2;P2;SDS_P1;SDS_P2;PMS_P1;PMS_P2;Temp;Humidity;BMP_temperature;BMP_pressure;BME280_temperature;BME280_humidity;BME280_pressure;Samples;Min_cycle;Max_cycle;Signal;HPM_P1;HPM_P2
2023/09/12 00:00:06;;;;;;;35.08;16.58;;;;;;;29.73;50.85;101381.09;5071760;28;20056;-71
2023/09/12 00:02:31;;;;;;;31.88;16.48;;;;;;;29.61;51.00;101388.31;5056053;28;20028;-71
2023/09/12 00:04:57;;;;;;;32.60;15.25;;;;;;;30.01;49.89;101388.75;5050240;28;20488;-71
2023/09/12 00:07:22;;;;;;;33.00;16.25;;;;;;;29.86;49.63;101386.31;5068413;28;20025;-71
2023/09/12 00:09:48;;;;;;;28.98;14.75;;;;;;;29.88;49.49;101389.75;5057124;28;20020;-71
2023/09/12 00:12:16;;;;;;;26.90;14.20;;;;;;;29.71;50.30;101388.41;5087510;28;20373;-71
2023/09/12 00:14:42;;;;;;;29.17;14.60;;;;;;;29.37;51.08;101379.56;5063689;28;20032;-71
2023/09/12 00:17:09;;;;;;;28.75;14.88;;;;;;;29.31;50.97;101374.69;5068744;28;20487;-70
2023/09/12 00:19:35;;;;;;;25.58;12.93;;;;;;;29.46;50.64;101378.81;5069405;28;20048;-70
2023/09/12 00:22:00;;;;;;;26.35;14.55;;;;;;;29.81;49.56;101375.03;5085641;28;20032;-71
2023/09/12 00:24:25;;;;;;;24.30;12.60;;;;;;;28.56;52.90;101380.50;5060782;28;20546;-71
2023/09/12 00:26:51;;;;;;;25.42;12.30;;;;;;;28.87;52.20;101366.50;5067472;28;20483;-71
2023/09/12 00:29:16;;;;;;;19.42;10.77;;;;;;;28.77;52.75;101371.75;5075386;28;20055;-71
2023/09/12 00:31:42;;;;;;;18.08;9.70;;;;;;;28.95;52.20;101372.13;5075090;28;20031;-71
2023/09/12 00:34:07;;;;;;;17.48;10.05;;;;;;;28.95;52.18;101369.44;5093941;28;20090;-70
2023/09/12 00:36:33;;;;;;;19.35;9.57;;;;;;;28.75;52.81;101368.31;5073903;28;20032;-71
2023/09/12 00:38:58;;;;;;;20.52;9.65;;;;;;;28.87;52.67;101363.81;5060619;28;20028;-71
2023/09/12 00:41:24;;;;;;;20.60;10.90;;;;;;;29.40;50.57;101360.47;5055253;28;20025;-71
2023/09/12 00:43:49;;;;;;;19.45;10.38;;;;;;;29.24;50.87;101363.53;5055545;28;20024;-70
2023/09/12 00:46:18;;;;;;;19.73;10.45;;;;;;;29.37;50.61;101363.41;5053265;28;20039;-71
2023/09/12 00:48:46;;;;;;;17.20;9.63;;;;;;;29.41;50.44;101370.25;5079020;28;20028;-71
2023/09/12 00:51:14;;;;;;;18.23;9.43;;;;;;;28.98;51.30;101365.66;5073928;28;20108;-71
2023/09/12 00:53:40;;;;;;;18.48;8.75;;;;;;;28.78;52.20;101362.69;5073899;28;20103;-71
2023/09/12 00:56:06;;;;;;;18.88;8.18;;;;;;;28.42;53.25;101357.34;5059636;28;20480;-71
2023/09/12 00:58:32;;;;;;;13.57;7.97;;;;;;;28.31;53.67;101369.94;5054664;28;20057;-71
2023/09/12 01:00:58;;;;;;;13.15;7.70;;;;;;;28.61;52.60;101356.78;5054408;28;20498;-71
2023/09/12 01:03:24;;;;;;;14.30;7.20;;;;;;;28.84;51.97;101359.53;5063586;28;20207;-71
2023/09/12 01:05:50;;;;;;;17.63;7.63;;;;;;;28.63;52.06;101363.88;5072927;28;20035;-71
2023/09/12 01:08:16;;;;;;;20.67;8.68;;;;;;;28.85;51.94;101363.94;5058790;28;20032;-71
2023/09/12 01:10:45;;;;;;;16.55;8.57;;;;;;;28.97;51.97;101361.25;5054808;28;20492;-71
2023/09/12 01:13:13;;;;;;;16.85;7.82;;;;;;;29.03;52.07;101374.19;5054447;28;20047;-70
2023/09/12 01:15:39;;;;;;;14.75;8.55;;;;;;;29.00;51.94;101366.38;5062554;28;20024;-71
2023/09/12 01:18:04;;;;;;;15.25;8.48;;;;;;;28.93;52.24;101353.41;5073410;28;20404;-71
2023/09/12 01:20:35;;;;;;;20.02;10.05;;;;;;;29.21;51.75;101351.19;5073549;28;20133;-71
2023/09/12 01:23:00;;;;;;;18.08;9.52;;;;;;;28.86;52.13;101349.47;5062408;28;20036;-71
2023/09/12 01:26:03;;;;;;;19.77;9.43;;;;;;;28.73;53.03;101354.16;5070524;28;20055;-71
2023/09/12 01:28:31;;;;;;;20.10;10.50;;;;;;;28.70;52.91;101349.00;5072472;28;20499;-71
2023/09/12 01:30:58;;;;;;;21.27;9.82;;;;;;;28.99;51.86;101349.38;5092685;28;20395;-71
2023/09/12 01:33:24;;;;;;;22.02;9.98;;;;;;;29.00;51.73;101345.69;5059894;28;20032;-71
2023/09/12 01:35:49;;;;;;;19.90;10.57;;;;;;;29.04;51.69;101351.69;5053613;28;20028;-71
2023/09/12 01:38:15;;;;;;;24.13;10.95;;;;;;;29.29;50.81;101350.56;5071940;28;20111;-71
2023/09/12 01:40:46;;;;;;;19.30;10.65;;;;;;;29.04;51.29;101357.91;5090227;28;20039;-71
2023/09/12 01:43:16;;;;;;;22.60;11.70;;;;;;;28.86;51.68;101349.47;5068497;28;20024;-70
2023/09/12 01:45:42;;;;;;;21.58;9.60;;;;;;;28.80;52.04;101350.00;5053536;28;20042;-70
2023/09/12 01:48:08;;;;;;;20.77;10.43;;;;;;;29.23;50.95;101348.38;5072938;28;20049;-71
2023/09/12 01:50:35;;;;;;;23.95;11.38;;;;;;;28.69;52.02;101348.16;5072511;28;20035;-71
2023/09/12 01:53:01;;;;;;;25.25;11.20;;;;;;;28.52;52.78;101343.19;5056269;28;20484;-71
2023/09/12 01:55:27;;;;;;;20.67;10.40;;;;;;;28.75;52.22;101347.66;5053283;28;20060;-70
2023/09/12 01:57:53;;;;;;;23.75;10.85;;;;;;;28.84;51.57;101353.28;5053916;28;20506;-71
2023/09/12 02:00:19;;;;;;;25.70;11.93;;;;;;;28.71;52.24;101345.34;5061117;28;20048;-71
2023/09/12 02:02:45;;;;;;;25.55;11.82;;;;;;;28.76;52.54;101351.22;5061077;28;20039;-71
2023/09/12 02:05:17;;;;;;;20.38;10.32;;;;;;;29.04;51.53;101351.69;5058942;28;20028;-70
2023/09/12 02:07:43;;;;;;;25.55;11.77;;;;;;;28.87;51.87;101351.22;5091432;28;20056;-72
2023/09/12 02:10:09;;;;;;;23.17;11.40;;;;;;;28.89;52.40;101354.66;5072948;28;20123;-71
2023/09/12 02:12:35;;;;;;;21.80;10.45;;;;;;;29.25;50.78;101344.59;5062350;28;20039;-71
2023/09/12 02:15:00;;;;;;;20.50;10.77;;;;;;;29.21;50.63;101342.25;5057016;28;20028;-71
2023/09/12 02:17:26;;;;;;;23.02;11.23;;;;;;;29.11;51.22;101342.13;5073100;28;20114;-71
2023/09/12 02:19:51;;;;;;;18.38;10.02;;;;;;;29.12;50.89;101343.84;5073386;28;20027;-71
2023/09/12 02:22:17;;;;;;;19.08;9.73;;;;;;;28.23;53.18;101352.56;5069583;28;20047;-71
2023/09/12 02:24:42;;;;;;;16.48;9.05;;;;;;;28.29;53.52;101355.72;5089349;28;20028;-71
2023/09/12 02:27:07;;;;;;;12.98;7.93;;;;;;;28.58;51.64;101351.66;5079294;28;20034;-71
2023/09/12 02:29:33;;;;;;;14.15;8.07;;;;;;;28.35;52.46;101355.28;5073105;28;20061;-71
2023/09/12 02:31:59;;;;;;;16.05;8.88;;;;;;;28.19;52.90;101356.47;5063179;28;20111;-71
2023/09/12 02:34:25;;;;;;;15.07;9.10;;;;;;;27.90;53.78;101356.81;5072852;28;20165;-71
2023/09/12 02:36:50;;;;;;;14.88;7.85;;;;;;;28.03;53.50;101353.25;5067690;28;20054;-71
2023/09/12 02:39:16;;;;;;;16.95;8.75;;;;;;;28.27;52.93;101351.34;5072192;28;20035;-71
2023/09/12 02:41:41;;;;;;;19.38;10.35;;;;;;;28.35;52.63;101349.91;5086518;28;20028;-71
2023/09/12 02:44:07;;;;;;;18.70;9.90;;;;;;;28.49;52.23;101349.66;5070588;28;20039;-71
2023/09/12 02:46:33;;;;;;;21.67;10.88;;;;;;;28.70;51.41;101349.88;5057823;28;20056;-71
2023/09/12 02:48:58;;;;;;;17.13;8.40;;;;;;;28.65;51.39;101348.53;5052925;28;20031;-69
2023/09/12 02:51:26;;;;;;;22.63;11.07;;;;;;;28.90;50.59;101345.56;5054486;28;20032;-71
2023/09/12 02:53:51;;;;;;;25.88;11.57;;;;;;;28.72;51.05;101347.06;5070392;28;20023;-70
2023/09/12 02:56:17;;;;;;;24.13;11.73;;;;;;;28.45;52.07;101350.88;5068230;28;20471;-71
2023/09/12 02:58:46;;;;;;;25.75;11.73;;;;;;;28.63;51.71;101342.38;5046323;28;20053;-71
2023/09/12 03:01:17;;;;;;;25.17;11.45;;;;;;;28.44;52.37;101331.22;5032276;28;20435;-70
2023/09/12 03:03:46;;;;;;;25.52;11.80;;;;;;;28.76;50.90;101337.75;5032873;28;20032;-71
2023/09/12 03:06:12;;;;;;;24.42;10.73;;;;;;;28.66;51.40;101337.63;5037160;28;20049;-70
2023/09/12 03:08:40;;;;;;;30.05;12.10;;;;;;;28.74;51.62;101334.31;5049376;28;20044;-71
2023/09/12 03:11:07;;;;;;;24.75;10.88;;;;;;;28.58;51.44;101335.50;5070533;28;20482;-72
2023/09/12 03:13:33;;;;;;;22.77;12.02;;;;;;;28.66;52.06;101326.88;5065454;28;20400;-71
2023/09/12 03:15:59;;;;;;;27.05;11.27;;;;;;;28.25;52.58;101339.84;5032492;28;20028;-71
2023/09/12 03:18:25;;;;;;;26.52;11.48;;;;;;;28.55;51.57;101326.81;5052182;28;20029;-71
2023/09/12 03:20:50;;;;;;;23.75;11.07;;;;;;;28.81;51.53;101330.19;5050691;28;20058;-71
2023/09/12 03:23:16;;;;;;;23.55;10.68;;;;;;;28.68;51.75;101329.44;5043746;28;20063;-71
2023/09/12 03:25:41;;;;;;;22.17;10.23;;;;;;;28.67;51.58;101325.88;5032977;28;20385;-71
2023/09/12 03:28:07;;;;;;;20.52;9.82;;;;;;;29.06;50.64;101323.69;5030956;28;20115;-71
2023/09/12 03:30:34;;;;;;;24.75;10.20;;;;;;;28.79;50.47;101321.38;5050471;28;20081;-71
2023/09/12 03:32:59;;;;;;;21.30;10.00;;;;;;;28.86;51.08;101317.22;5035943;28;20102;-71
2023/09/12 03:35:25;;;;;;;24.48;11.50;;;;;;;28.67;51.49;101322.34;5030824;28;20476;-71
2023/09/12 03:37:51;;;;;;;24.58;11.45;;;;;;;28.74;51.46;101326.25;5032239;28;20116;-71
2023/09/12 03:40:16;;;;;;;22.73;11.32;;;;;;;28.82;50.67;101334.56;5031022;28;20024;-71
2023/09/12 03:42:42;;;;;;;23.00;11.57;;;;;;;29.01;50.36;101333.94;5031132;28;20036;-70
2023/09/12 03:45:08;;;;;;;23.73;11.63;;;;;;;28.11;52.08;101337.38;5049501;28;20029;-71
2023/09/12 03:47:34;;;;;;;20.42;10.27;;;;;;;28.71;51.56;101337.25;5039603;28;20127;-70
2023/09/12 03:49:59;;;;;;;24.15;11.52;;;;;;;28.57;51.46;101328.41;5050000;28;20102;-71
2023/09/12 03:52:25;;;;;;;29.95;12.38;;;;;;;27.98;53.19;101331.19;5049066;28;20090;-70
2023/09/12 03:54:50;;;;;;;22.05;10.73;;;;;;;28.18;52.86;101330.56;5040312;28;20386;-70
2023/09/12 03:57:16;;;;;;;22.98;11.57;;;;;;;28.35;52.61;101323.88;5034770;28;20419;-71
2023/09/12 03:59:41;;;;;;;23.33;10.70;;;;;;;28.36;52.47;101330.97;5049670;28;20169;-70
2023/09/12 04:02:07;;;;;;;26.30;12.70;;;;;;;28.55;51.77;101326.81;5062812;28;20036;-71
2023/09/12 04:04:32;;;;;;;30.92;12.13;;;;;;;28.56;51.64;101332.09;5056161;28;20032;-71
2023/09/12 04:06:58;;;;;;;30.55;12.98;;;;;;;28.64;51.68;101327.97;5062809;28;20037;-71
2023/09/12 04:09:23;;;;;;;30.27;13.75;;;;;;;28.46;51.86;101331.09;5054865;28;20367;-71
2023/09/12 04:11:48;;;;;;;32.83;11.85;;;;;;;28.71;51.22;101332.72;5056027;28;20027;-71
2023/09/12 04:14:14;;;;;;;26.70;11.23;;;;;;;28.82;51.39;101331.88;5054912;28;20158;-71
2023/09/12 04:16:40;;;;;;;28.73;12.23;;;;;;;28.85;51.23;101331.66;5071112;28;20039;-71
2023/09/12 04:19:05;;;;;;;30.58;12.65;;;;;;;28.49;51.50;101341.59;5089980;28;20028;-71
2023/09/12 04:21:31;;;;;;;29.35;12.05;;;;;;;28.68;51.92;101340.22;5089817;28;20530;-71
2023/09/12 04:23:56;;;;;;;28.35;12.60;;;;;;;28.88;50.96;101331.41;5072572;28;20097;-71
2023/09/12 04:26:22;;;;;;;29.85;12.82;;;;;;;28.87;51.42;101329.69;5073246;28;20036;-71
2023/09/12 04:28:47;;;;;;;25.52;10.23;;;;;;;29.13;50.44;101331.25;5055480;28;20021;-71
2023/09/12 04:31:13;;;;;;;25.30;10.95;;;;;;;29.03;51.31;101333.81;5062274;28;20030;-71
2023/09/12 04:33:38;;;;;;;31.95;12.20;;;;;;;28.34;53.14;101335.59;5070731;28;20035;-70
2023/09/12 04:36:04;;;;;;;29.10;11.55;;;;;;;28.53;52.32;101337.69;5055479;28;20027;-71
2023/09/12 04:38:30;;;;;;;30.52;11.82;;;;;;;28.34;53.33;101337.44;5054221;28;20024;-71
2023/09/12 04:41:04;;;;;;;25.73;12.07;;;;;;;28.15;54.09;101343.38;5068672;28;20050;-71
2023/09/12 04:43:33;;;;;;;29.10;12.15;;;;;;;28.84;52.43;101335.31;5074565;28;20039;-70
2023/09/12 04:45:58;;;;;;;32.03;13.38;;;;;;;28.79;52.20;101326.75;5059164;28;20460;-71
2023/09/12 04:48:24;;;;;;;24.17;11.18;;;;;;;28.72;52.04;101325.53;5086772;28;20034;-71
2023/09/12 04:50:49;;;;;;;29.23;12.82;;;;;;;28.94;51.60;101333.59;5062698;28;20050;-71
2023/09/12 04:53:15;;;;;;;23.40;11.57;;;;;;;28.49;53.05;101336.22;5071396;28;20028;-71
2023/09/12 04:55:40;;;;;;;24.63;11.15;;;;;;;28.97;52.12;101328.97;5058419;28;20115;-71
2023/09/12 04:58:06;;;;;;;29.95;12.18;;;;;;;28.75;51.92;101330.66;5091600;28;20028;-71
2023/09/12 05:00:32;;;;;;;27.67;11.43;;;;;;;28.63;52.43;101336.97;5046696;28;20033;-71
2023/09/12 05:02:58;;;;;;;27.13;11.77;;;;;;;28.69;53.12;101331.16;5052037;28;20032;-71
2023/09/12 05:05:23;;;;;;;25.52;11.15;;;;;;;29.05;52.19;101331.88;5034819;28;20087;-71
2023/09/12 05:07:51;;;;;;;27.63;12.02;;;;;;;28.29;53.45;101334.25;5052824;28;20388;-71
2023/09/12 05:10:17;;;;;;;29.13;13.00;;;;;;;28.23;53.96;101341.81;5051946;28;20038;-70
2023/09/12 05:12:42;;;;;;;27.20;12.27;;;;;;;28.23;53.10;101344.50;5041025;28;20024;-71
2023/09/12 05:15:08;;;;;;;26.17;11.75;;;;;;;28.88;52.08;101327.84;5034441;28;20029;-70
2023/09/12 05:17:33;;;;;;;31.77;13.77;;;;;;;28.38;53.14;101329.00;5033887;28;20071;-72
2023/09/12 05:19:59;;;;;;;28.98;11.43;;;;;;;28.68;52.38;101334.81;5052339;28;20032;-72
2023/09/12 05:22:24;;;;;;;25.60;12.93;;;;;;;28.46;53.75;101335.63;5060140;28;20036;-73
2023/09/12 05:24:49;;;;;;;29.70;12.98;;;;;;;28.57;53.19;101333.78;5052350;28;20020;-73
2023/09/12 05:27:15;;;;;;;29.38;12.65;;;;;;;28.44;54.06;101333.91;5053449;28;20020;-71
2023/09/12 05:29:40;;;;;;;26.83;12.20;;;;;;;28.68;53.11;101334.81;5054438;28;20476;-72
2023/09/12 05:32:06;;;;;;;29.70;12.25;;;;;;;29.15;52.21;101338.22;5041823;28;20029;-73
2023/09/12 05:34:31;;;;;;;31.00;13.07;;;;;;;28.77;52.24;101334.09;5033440;28;20021;-73
2023/09/12 05:36:57;;;;;;;30.95;13.15;;;;;;;28.11;54.98;101342.75;5052478;28;20025;-70
2023/09/12 05:39:23;;;;;;;31.58;13.27;;;;;;;27.75;56.06;101348.09;5053745;28;20047;-70
2023/09/12 05:41:49;;;;;;;29.23;13.35;;;;;;;28.27;54.76;101346.00;5052664;28;20141;-70
2023/09/12 05:44:18;;;;;;;27.55;12.70;;;;;;;28.87;53.19;101340.44;5051498;28;20033;-71
2023/09/12 05:46:47;;;;;;;25.45;11.73;;;;;;;28.65;53.63;101340.47;5053667;28;20442;-71
2023/09/12 05:49:13;;;;;;;30.30;12.40;;;;;;;28.58;53.84;101345.44;5060092;28;20047;-71
2023/09/12 05:51:38;;;;;;;27.23;12.52;;;;;;;28.92;52.99;101335.56;5071933;28;20025;-71
2023/09/12 05:54:04;;;;;;;34.45;13.60;;;;;;;29.07;52.57;101335.28;5053851;28;20023;-70
2023/09/12 05:56:29;;;;;;;35.45;13.15;;;;;;;28.77;53.49;101342.16;5049646;28;20032;-71
2023/09/12 05:58:55;;;;;;;28.20;13.13;;;;;;;28.91;53.21;101339.22;5044643;28;20060;-71
2023/09/12 06:01:20;;;;;;;30.55;13.43;;;;;;;29.17;52.27;101347.03;5053597;28;20036;-71
2023/09/12 06:03:46;;;;;;;35.60;14.02;;;;;;;28.63;54.64;101345.06;5065100;28;20027;-71
2023/09/12 06:06:14;;;;;;;39.28;14.80;;;;;;;28.90;53.87;101340.19;5071114;28;20040;-70
2023/09/12 06:08:40;;;;;;;30.83;12.68;;;;;;;29.32;52.67;101349.47;5078156;28;20024;-71
2023/09/12 06:11:05;;;;;;;33.95;14.20;;;;;;;28.28;55.94;101357.59;5073739;28;20023;-71
2023/09/12 06:13:32;;;;;;;39.65;13.70;;;;;;;28.97;53.75;101362.09;5067427;28;20145;-71
2023/09/12 06:15:58;;;;;;;39.35;14.02;;;;;;;29.10;53.71;101356.59;5070389;28;20397;-71
2023/09/12 06:18:24;;;;;;;36.88;14.10;;;;;;;29.14;53.02;101354.50;5070977;28;20032;-71
2023/09/12 06:20:49;;;;;;;32.03;13.38;;;;;;;28.93;53.52;101358.81;5087343;28;20027;-71
2023/09/12 06:23:14;;;;;;;36.08;13.40;;;;;;;29.09;54.04;101354.88;5072052;28;20476;-71
2023/09/12 06:25:40;;;;;;;44.42;15.98;;;;;;;28.43;55.53;101363.59;5059116;28;20021;-71
2023/09/12 06:28:08;;;;;;;35.40;14.52;;;;;;;29.13;53.51;101364.41;5053432;28;20024;-71
2023/09/12 06:30:33;;;;;;;39.67;14.25;;;;;;;29.22;53.45;101366.38;5070715;28;20021;-71
2023/09/12 06:32:59;;;;;;;39.63;14.25;;;;;;;29.20;53.61;101373.69;5058012;28;20028;-71
2023/09/12 06:35:25;;;;;;;41.90;15.00;;;;;;;29.61;51.91;101377.56;5070202;28;20421;-71
2023/09/12 06:37:50;;;;;;;42.97;15.55;;;;;;;29.80;51.41;101376.03;5051682;28;20035;-71
2023/09/12 06:40:15;;;;;;;39.80;15.77;;;;;;;29.17;52.98;101367.69;5081178;28;20043;-71
2023/09/12 06:42:42;;;;;;;43.55;14.68;;;;;;;29.38;52.42;101376.75;5070385;28;20031;-71
2023/09/12 06:45:08;;;;;;;46.30;16.23;;;;;;;29.43;52.56;101373.69;5076597;28;20031;-71
2023/09/12 06:47:33;;;;;;;49.80;17.25;;;;;;;29.63;52.45;101376.59;5083262;28;20476;-71
2023/09/12 06:49:59;;;;;;;49.15;17.48;;;;;;;29.51;52.34;101371.22;5072950;28;20060;-71
2023/09/12 06:52:24;;;;;;;50.28;16.45;;;;;;;29.54;52.41;101375.47;5074523;28;20039;-71
2023/09/12 06:54:50;;;;;;;51.05;17.83;;;;;;;28.84;54.29;101378.34;5061627;28;20743;-71
2023/09/12 06:57:15;;;;;;;49.97;16.15;;;;;;;29.61;53.16;101376.72;5055605;28;20036;-71
2023/09/12 06:59:41;;;;;;;51.67;16.15;;;;;;;29.39;53.45;101374.94;5057447;28;20044;-71
2023/09/12 07:02:07;;;;;;;53.60;18.08;;;;;;;29.28;53.79;101376.66;5055550;28;20048;-71
2023/09/12 07:04:33;;;;;;;43.28;14.02;;;;;;;29.34;53.05;101374.44;5035812;28;20056;-71
2023/09/12 07:06:59;;;;;;;48.53;18.00;;;;;;;29.59;53.25;101368.78;5057271;28;20032;-72
2023/09/12 07:09:24;;;;;;;46.00;16.77;;;;;;;30.05;51.56;101368.63;5069911;28;20040;-71
2023/09/12 07:11:49;;;;;;;41.95;17.15;;;;;;;29.27;53.44;101374.09;5060624;28;20024;-70
2023/09/12 07:14:15;;;;;;;41.58;15.82;;;;;;;29.33;52.57;101372.72;5049987;28;20033;-71
2023/09/12 07:16:40;;;;;;;40.03;16.23;;;;;;;29.34;52.62;101371.75;5053087;28;20379;-71
2023/09/12 07:19:06;;;;;;;46.08;16.35;;;;;;;29.15;53.01;101370.50;5071824;28;20023;-71
2023/09/12 07:21:32;;;;;;;47.83;16.58;;;;;;;29.90;51.48;101371.63;5061507;28;20086;-71
2023/09/12 07:23:57;;;;;;;37.10;15.60;;;;;;;28.87;54.02;101380.78;5068478;28;20477;-71
2023/09/12 07:26:23;;;;;;;40.28;16.48;;;;;;;28.23;55.53;101384.81;5071511;28;20111;-72
2023/09/12 07:28:49;;;;;;;47.47;16.75;;;;;;;29.05;53.71;101380.31;5066880;28;20030;-71
2023/09/12 07:31:14;;;;;;;44.90;16.25;;;;;;;29.15;53.35;101378.59;5073365;28;20257;-70
2023/09/12 07:33:41;;;;;;;42.90;17.08;;;;;;;29.36;52.34;101380.53;5050333;28;20024;-70
2023/09/12 07:36:06;;;;;;;47.45;17.75;;;;;;;30.63;51.21;101378.97;5055970;28;20213;-70
2023/09/12 07:38:32;;;;;;;46.50;18.67;;;;;;;31.54;47.02;101384.44;5086312;28;20510;-71
2023/09/12 07:40:57;;;;;;;36.70;15.90;;;;;;;31.52;46.31;101386.44;5071158;28;20020;-71
2023/09/12 07:43:23;;;;;;;34.28;15.90;;;;;;;32.67;44.58;101394.81;5070742;28;20428;-71
2023/09/12 07:45:49;;;;;;;34.05;14.73;;;;;;;34.64;41.12;101402.38;5058441;28;20024;-71
2023/09/12 07:48:15;;;;;;;33.08;14.82;;;;;;;33.98;40.84;101393.72;5065505;28;20195;-70
2023/09/12 07:50:41;;;;;;;31.80;14.75;;;;;;;32.87;42.93;101387.53;5080322;28;20029;-70
2023/09/12 07:53:07;;;;;;;35.22;14.55;;;;;;;33.19;42.20;101392.50;5074611;28;20027;-71
2023/09/12 07:55:44;;;;;;;37.25;14.73;;;;;;;31.74;44.69;101400.72;5049931;28;20392;-71
2023/09/12 07:58:13;;;;;;;34.40;15.20;;;;;;;32.53;43.34;101402.38;5062865;28;20033;-71
2023/09/12 08:00:39;;;;;;;36.35;15.55;;;;;;;32.10;44.17;101401.00;5031805;28;20033;-70
2023/09/12 08:03:04;;;;;;;36.75;16.45;;;;;;;31.30;45.53;101399.16;5031145;28;20480;-70
2023/09/12 08:05:30;;;;;;;32.85;15.20;;;;;;;31.89;43.91;101399.31;5049022;28;20029;-71
2023/09/12 08:07:55;;;;;;;34.38;14.98;;;;;;;31.59;44.76;101402.97;5031969;28;20595;-71
2023/09/12 08:10:20;;;;;;;37.47;15.77;;;;;;;31.30;46.19;101409.97;5030763;28;20040;-70
2023/09/12 08:12:46;;;;;;;36.45;16.52;;;;;;;31.02;46.48;101410.69;5047391;28;20048;-70
2023/09/12 08:15:12;;;;;;;40.50;16.80;;;;;;;31.78;45.18;101407.56;5038504;28;20033;-70
2023/09/12 08:17:38;;;;;;;39.47;16.33;;;;;;;31.74;45.79;101412.38;5048991;28;20033;-71
2023/09/12 08:20:05;;;;;;;36.88;16.23;;;;;;;32.45;45.12;101415.78;5031710;28;20051;-70
2023/09/12 08:22:30;;;;;;;34.53;16.15;;;;;;;33.00;44.34;101403.41;5030229;28;20404;-70
2023/09/12 08:24:55;;;;;;;38.35;16.38;;;;;;;32.63;44.34;101411.34;5036673;28;20025;-70
2023/09/12 08:27:21;;;;;;;38.40;17.10;;;;;;;31.20;45.71;101409.09;5040392;28;20029;-71
2023/09/12 08:29:48;;;;;;;34.65;16.38;;;;;;;31.42;45.80;101407.16;5030988;28;20112;-70
2023/09/12 08:32:13;;;;;;;37.28;17.35;;;;;;;32.65;43.79;101417.44;5031296;28;20052;-69
2023/09/12 08:34:39;;;;;;;38.97;17.67;;;;;;;32.26;43.32;101417.53;5031353;28;20447;-70
2023/09/12 08:37:04;;;;;;;36.20;16.23;;;;;;;33.08;42.13;101411.66;5030373;28;20037;-70
2023/09/12 08:39:42;;;;;;;37.50;16.65;;;;;;;33.36;42.78;101417.09;5034909;28;20037;-70
2023/09/12 08:42:12;;;;;;;36.80;16.92;;;;;;;33.14;42.52;101411.06;5062896;28;20042;-70
2023/09/12 08:44:38;;;;;;;38.83;16.80;;;;;;;33.38;41.44;101406.97;5039837;28;20048;-70
2023/09/12 08:47:05;;;;;;;37.75;16.95;;;;;;;33.29;42.47;101408.72;5035106;28;20449;-70
2023/09/12 08:49:34;;;;;;;32.22;15.38;;;;;;;33.12;42.03;101407.63;5052859;28;20301;-70
2023/09/12 08:52:00;;;;;;;32.53;16.13;;;;;;;33.41;41.99;101409.38;5052380;28;20025;-70
2023/09/12 08:54:25;;;;;;;32.58;15.95;;;;;;;32.92;42.37;101406.84;5036508;28;20025;-70
2023/09/12 08:56:51;;;;;;;34.22;15.35;;;;;;;33.20;41.54;101410.44;5054500;28;20048;-70
2023/09/12 08:59:17;;;;;;;31.48;14.60;;;;;;;32.79;42.77;101407.19;5063910;28;20132;-70
2023/09/12 09:01:44;;;;;;;30.05;15.35;;;;;;;34.03;41.14;101403.25;5074970;28;20042;-70
2023/09/12 09:04:11;;;;;;;34.72;16.48;;;;;;;33.60;41.91;101395.69;5091229;28;20028;-70
2023/09/12 09:06:37;;;;;;;33.55;14.82;;;;;;;33.42;41.78;101408.38;5078969;28;20050;-71
2023/09/12 09:09:07;;;;;;;33.83;14.52;;;;;;;33.90;41.56;101407.22;5071322;28;20397;-71
2023/09/12 09:11:33;;;;;;;29.48;14.77;;;;;;;33.18;42.84;101407.06;5084791;28;20036;-71
2023/09/12 09:13:58;;;;;;;32.15;16.35;;;;;;;33.79;40.74;101410.16;5092810;28;20020;-70
2023/09/12 09:16:23;;;;;;;34.88;15.95;;;;;;;33.65;41.52;101409.66;5073981;28;20016;-71
2023/09/12 09:18:57;;;;;;;35.35;15.95;;;;;;;34.50;39.83;101411.13;5069345;28;20712;-71
2023/09/12 09:21:31;;;;;;;31.38;14.95;;;;;;;32.76;42.40;101423.75;5089963;28;20042;-70
2023/09/12 09:24:00;;;;;;;33.92;15.07;;;;;;;32.60;43.76;101429.72;5071528;28;20031;-71
2023/09/12 09:26:41;;;;;;;33.63;15.65;;;;;;;32.67;43.59;101430.00;5070514;28;20074;-71
2023/09/12 09:29:09;;;;;;;33.15;15.43;;;;;;;32.30;43.62;101429.78;5054196;28;20028;-70
2023/09/12 09:31:35;;;;;;;36.00;15.43;;;;;;;32.29;44.04;101432.63;5054084;28;20031;-71
2023/09/12 09:34:01;;;;;;;35.55;16.48;;;;;;;31.75;44.52;101421.31;5078891;28;20463;-71
2023/09/12 09:36:27;;;;;;;32.72;15.43;;;;;;;31.67;44.98;101426.56;5053934;28;20126;-71
2023/09/12 09:38:54;;;;;;;32.88;16.27;;;;;;;32.10;44.31;101433.44;5054293;28;20025;-71
2023/09/12 09:41:21;;;;;;;35.08;15.60;;;;;;;31.06;46.49;101433.75;5053085;28;20025;-71
2023/09/12 09:43:50;;;;;;;34.25;15.85;;;;;;;32.44;43.97;101433.88;5060270;28;20027;-71
2023/09/12 09:46:19;;;;;;;31.48;15.35;;;;;;;32.57;43.95;101436.28;5074009;28;20040;-71
2023/09/12 09:48:51;;;;;;;30.85;15.68;;;;;;;32.52;43.32;101438.56;5073470;28;20052;-71
2023/09/12 09:51:17;;;;;;;32.58;15.93;;;;;;;33.20;42.64;101447.53;5081688;28;20053;-71
2023/09/12 09:53:43;;;;;;;32.15;16.58;;;;;;;33.09;42.01;101440.44;5072879;28;20062;-69
2023/09/12 09:56:14;;;;;;;29.88;15.98;;;;;;;32.92;42.65;101444.75;5074048;28;20042;-71
2023/09/12 09:58:55;;;;;;;34.08;18.42;;;;;;;32.67;42.59;101446.22;5073565;28;20101;-71
2023/09/12 10:01:28;;;;;;;32.95;16.88;;;;;;;31.73;44.63;101447.63;5068499;28;20020;-71
2023/09/12 10:03:59;;;;;;;31.20;15.05;;;;;;;30.56;47.73;101448.75;5056627;28;20032;-71
2023/09/12 10:06:27;;;;;;;29.08;15.75;;;;;;;31.75;45.11;101445.63;5057837;28;20034;-71
2023/09/12 10:08:53;;;;;;;25.38;13.63;;;;;;;31.18;45.66;101443.44;5069991;28;20584;-71
2023/09/12 10:11:31;;;;;;;33.92;15.85;;;;;;;31.88;44.93;101430.00;5063118;28;20024;-71
2023/09/12 10:13:59;;;;;;;28.98;13.73;;;;;;;30.68;46.32;101427.97;5054449;28;20020;-71
2023/09/12 10:16:32;;;;;;;28.40;13.80;;;;;;;31.17;46.23;101430.94;5051850;28;20118;-71
2023/09/12 10:19:07;;;;;;;29.08;13.63;;;;;;;31.58;44.68;101428.22;5059686;28;20024;-71
2023/09/12 10:21:34;;;;;;;25.38;12.63;;;;;;;33.25;42.30;101424.44;5060850;28;20028;-70
2023/09/12 10:24:03;;;;;;;24.85;14.23;;;;;;;32.86;41.98;101438.06;5057822;28;20035;-70
2023/09/12 10:26:31;;;;;;;24.60;13.38;;;;;;;30.90;44.99;101435.06;5059338;28;20028;-69
2023/09/12 10:28:59;;;;;;;27.45;12.60;;;;;;;31.90;43.46;101432.56;5052448;28;20488;-70
2023/09/12 10:31:26;;;;;;;25.73;12.95;;;;;;;33.03;41.92;101431.06;5052502;28;20039;-70
2023/09/12 10:33:53;;;;;;;24.40;12.88;;;;;;;32.97;41.65;101420.81;5055950;28;20202;-71
2023/09/12 10:36:20;;;;;;;23.70;13.27;;;;;;;34.13;40.28;101418.44;5076619;28;20039;-71
2023/09/12 10:38:48;;;;;;;22.15;11.43;;;;;;;32.24;41.77;101430.31;5056436;28;20028;-71
2023/09/12 10:41:15;;;;;;;24.17;12.13;;;;;;;33.56;40.57;101409.72;5060981;28;20024;-70
2023/09/12 10:43:42;;;;;;;23.65;12.30;;;;;;;32.06;42.71;101419.34;5061882;28;20020;-71
2023/09/12 10:46:08;;;;;;;23.75;12.95;;;;;;;31.89;42.85;101412.81;5053036;28;20362;-70
2023/09/12 10:48:39;;;;;;;23.95;12.77;;;;;;;32.23;42.52;101417.84;5051655;28;20036;-70
2023/09/12 10:51:07;;;;;;;21.17;11.48;;;;;;;32.42;41.67;101416.09;5051959;28;20047;-70
2023/09/12 10:53:35;;;;;;;25.55;11.23;;;;;;;32.08;41.48;101417.38;5051750;28;20047;-70
2023/09/12 10:56:20;;;;;;;18.75;10.43;;;;;;;32.79;40.68;101396.38;5084529;28;20038;-69
2023/09/12 10:59:06;;;;;;;19.00;10.02;;;;;;;33.02;40.52;101396.84;5083654;28;20056;-70
2023/09/12 11:01:34;;;;;;;19.20;10.35;;;;;;;33.93;39.21;101397.91;5043947;28;20116;-70
2023/09/12 11:04:19;;;;;;;22.35;11.32;;;;;;;33.36;39.38;101398.13;5051599;28;20025;-69
2023/09/12 11:06:45;;;;;;;25.70;11.82;;;;;;;34.66;37.82;101397.66;5051004;28;20117;-70